sensor_id;sensor_type;location;lat;lon;timestamp;P1;durP1;ratioP1;P2;durP2;ratioP2
12990;SDS011;6560;57.692;11.958;2024-03-08T00:00:07;8.73;;;5.73;;
12990;SDS011;6560;57.692;11.958;2024-03-08T00:02:40;8.33;;;5.07;;
12990;SDS011;6560;57.692;11.958;2024-03-08T00:05:08;13.20;;;5.67;;
12990;SDS011;6560;57.692;11.958;2024-03-08T00:07:34;8.60;;;5.47;;
12990;SDS011;6560;57.692;11.958;2024-03-08T00:10:01;8.53;;;5.70;;
12990;SDS011;6560;57.692;11.958;2024-03-08T00:12:30;8.70;;;5.03;;
12990;SDS011;6560;57.692;11.958;2024-03-08T00:14:56;10.03;;;5.57;;
12990;SDS011;6560;57.692;11.958;2024-03-08T00:17:21;9.33;;;5.93;;
12990;SDS011;6560;57.692;11.958;2024-03-08T00:19:53;10.57;;;5.47;;
12990;SDS011;6560;57.692;11.958;2024-03-08T00:22:19;9.13;;;5.53;;
12990;SDS011;6560;57.692;11.958;2024-03-08T00:24:45;12.77;;;5.63;;
12990;SDS011;6560;57.692;11.958;2024-03-08T00:27:10;13.13;;;6.20;;
12990;SDS011;6560;57.692;11.958;2024-03-08T00:29:36;9.87;;;5.03;;
12990;SDS011;6560;57.692;11.958;2024-03-08T00:32:04;11.60;;;6.03;;
12990;SDS011;6560;57.692;11.958;2024-03-08T00:34:29;9.63;;;5.50;;
12990;SDS011;6560;57.692;11.958;2024-03-08T00:36:56;11.57;;;5.70;;
12990;SDS011;6560;57.692;11.958;2024-03-08T00:39:22;7.03;;;5.20;;
12990;SDS011;6560;57.692;11.958;2024-03-08T00:41:48;10.00;;;5.80;;
12990;SDS011;6560;57.692;11.958;2024-03-08T00:44:13;7.97;;;4.57;;
12990;SDS011;6560;57.692;11.958;2024-03-08T00:46:39;8.67;;;5.13;;
12990;SDS011;6560;57.692;11.958;2024-03-08T00:49:04;10.07;;;5.50;;
12990;SDS011;6560;57.692;11.958;2024-03-08T00:51:31;8.03;;;5.93;;
12990;SDS011;6560;57.692;11.958;2024-03-08T00:53:57;10.10;;;5.70;;
12990;SDS011;6560;57.692;11.958;2024-03-08T00:56:23;8.90;;;5.80;;
12990;SDS011;6560;57.692;11.958;2024-03-08T00:58:49;8.33;;;5.73;;
12990;SDS011;6560;57.692;11.958;2024-03-08T01:01:16;8.33;;;5.07;;
12990;SDS011;6560;57.692;11.958;2024-03-08T01:03:43;10.23;;;5.60;;
12990;SDS011;6560;57.692;11.958;2024-03-08T01:06:09;7.23;;;4.53;;
12990;SDS011;6560;57.692;11.958;2024-03-08T01:08:34;9.17;;;5.17;;
12990;SDS011;6560;57.692;11.958;2024-03-08T01:11:03;9.63;;;5.97;;
12990;SDS011;6560;57.692;11.958;2024-03-08T01:13:30;7.33;;;5.30;;
12990;SDS011;6560;57.692;11.958;2024-03-08T01:15:55;10.87;;;5.13;;
12990;SDS011;6560;57.692;11.958;2024-03-08T01:18:21;10.23;;;7.60;;
12990;SDS011;6560;57.692;11.958;2024-03-08T01:20:47;11.03;;;5.40;;
12990;SDS011;6560;57.692;11.958;2024-03-08T01:23:12;10.60;;;5.10;;
12990;SDS011;6560;57.692;11.958;2024-03-08T01:25:39;9.53;;;5.43;;
12990;SDS011;6560;57.692;11.958;2024-03-08T01:28:04;10.23;;;5.17;;
12990;SDS011;6560;57.692;11.958;2024-03-08T01:30:30;7.80;;;5.30;;
12990;SDS011;6560;57.692;11.958;2024-03-08T01:32:58;11.07;;;5.50;;
12990;SDS011;6560;57.692;11.958;2024-03-08T01:35:23;10.87;;;5.27;;
12990;SDS011;6560;57.692;11.958;2024-03-08T01:37:49;10.73;;;4.90;;
12990;SDS011;6560;57.692;11.958;2024-03-08T01:40:15;9.27;;;5.60;;
12990;SDS011;6560;57.692;11.958;2024-03-08T01:42:41;12.83;;;6.47;;
12990;SDS011;6560;57.692;11.958;2024-03-08T01:45:07;11.53;;;6.10;;
12990;SDS011;6560;57.692;11.958;2024-03-08T01:47:34;11.20;;;5.43;;
12990;SDS011;6560;57.692;11.958;2024-03-08T01:50:00;8.43;;;5.63;;
12990;SDS011;6560;57.692;11.958;2024-03-08T01:52:26;9.00;;;5.33;;
12990;SDS011;6560;57.692;11.958;2024-03-08T01:54:54;10.93;;;5.23;;
12990;SDS011;6560;57.692;11.958;2024-03-08T01:57:19;9.70;;;6.63;;
12990;SDS011;6560;57.692;11.958;2024-03-08T01:59:45;11.57;;;5.53;;
12990;SDS011;6560;57.692;11.958;2024-03-08T02:02:11;8.00;;;5.17;;
12990;SDS011;6560;57.692;11.958;2024-03-08T02:04:40;13.30;;;6.40;;
12990;SDS011;6560;57.692;11.958;2024-03-08T02:07:05;13.13;;;6.60;;
12990;SDS011;6560;57.692;11.958;2024-03-08T02:09:31;9.67;;;5.53;;
12990;SDS011;6560;57.692;11.958;2024-03-08T02:11:57;12.87;;;6.27;;
12990;SDS011;6560;57.692;11.958;2024-03-08T02:14:22;7.07;;;5.47;;
12990;SDS011;6560;57.692;11.958;2024-03-08T02:16:48;7.33;;;6.03;;
12990;SDS011;6560;57.692;11.958;2024-03-08T02:19:16;13.60;;;7.27;;
12990;SDS011;6560;57.692;11.958;2024-03-08T02:21:41;9.20;;;5.20;;
12990;SDS011;6560;57.692;11.958;2024-03-08T02:24:07;12.60;;;6.13;;
12990;SDS011;6560;57.692;11.958;2024-03-08T02:26:32;11.90;;;6.37;;
12990;SDS011;6560;57.692;11.958;2024-03-08T02:28:58;8.13;;;5.50;;
12990;SDS011;6560;57.692;11.958;2024-03-08T02:31:23;9.90;;;5.73;;
12990;SDS011;6560;57.692;11.958;2024-03-08T02:33:48;10.47;;;5.93;;
12990;SDS011;6560;57.692;11.958;2024-03-08T02:36:14;9.73;;;6.87;;
12990;SDS011;6560;57.692;11.958;2024-03-08T02:38:39;9.57;;;6.33;;
12990;SDS011;6560;57.692;11.958;2024-03-08T02:41:08;9.07;;;6.03;;
12990;SDS011;6560;57.692;11.958;2024-03-08T02:43:33;10.10;;;6.60;;
12990;SDS011;6560;57.692;11.958;2024-03-08T02:45:59;8.30;;;5.50;;
12990;SDS011;6560;57.692;11.958;2024-03-08T02:48:25;13.17;;;6.20;;
12990;SDS011;6560;57.692;11.958;2024-03-08T02:50:50;11.37;;;6.60;;
12990;SDS011;6560;57.692;11.958;2024-03-08T02:53:16;10.47;;;5.77;;
12990;SDS011;6560;57.692;11.958;2024-03-08T02:55:41;7.80;;;5.30;;
12990;SDS011;6560;57.692;11.958;2024-03-08T02:58:07;7.93;;;5.73;;
12990;SDS011;6560;57.692;11.958;2024-03-08T03:00:36;9.50;;;5.83;;
12990;SDS011;6560;57.692;11.958;2024-03-08T03:03:02;10.40;;;6.27;;
12990;SDS011;6560;57.692;11.958;2024-03-08T03:05:28;10.90;;;5.70;;
12990;SDS011;6560;57.692;11.958;2024-03-08T03:07:57;12.93;;;5.53;;
12990;SDS011;6560;57.692;11.958;2024-03-08T03:10:23;11.00;;;6.63;;
12990;SDS011;6560;57.692;11.958;2024-03-08T03:12:49;10.27;;;5.53;;
12990;SDS011;6560;57.692;11.958;2024-03-08T03:15:15;11.37;;;6.90;;
12990;SDS011;6560;57.692;11.958;2024-03-08T03:17:45;10.53;;;6.17;;
12990;SDS011;6560;57.692;11.958;2024-03-08T03:20:16;10.23;;;6.57;;
12990;SDS011;6560;57.692;11.958;2024-03-08T03:22:50;9.83;;;6.03;;
12990;SDS011;6560;57.692;11.958;2024-03-08T03:25:19;12.03;;;6.03;;
12990;SDS011;6560;57.692;11.958;2024-03-08T03:27:54;13.87;;;6.83;;
12990;SDS011;6560;57.692;11.958;2024-03-08T03:30:23;12.00;;;6.47;;
12990;SDS011;6560;57.692;11.958;2024-03-08T03:32:51;11.63;;;5.90;;
12990;SDS011;6560;57.692;11.958;2024-03-08T03:35:17;10.43;;;6.53;;
12990;SDS011;6560;57.692;11.958;2024-03-08T03:37:43;9.50;;;6.43;;
12990;SDS011;6560;57.692;11.958;2024-03-08T03:40:26;10.77;;;6.60;;
12990;SDS011;6560;57.692;11.958;2024-03-08T03:42:53;9.77;;;6.80;;
12990;SDS011;6560;57.692;11.958;2024-03-08T03:45:18;10.67;;;6.70;;
12990;SDS011;6560;57.692;11.958;2024-03-08T03:47:45;9.83;;;5.60;;
12990;SDS011;6560;57.692;11.958;2024-03-08T03:50:11;9.47;;;6.33;;
12990;SDS011;6560;57.692;11.958;2024-03-08T03:52:36;11.07;;;6.23;;
12990;SDS011;6560;57.692;11.958;2024-03-08T03:55:02;10.50;;;6.50;;
12990;SDS011;6560;57.692;11.958;2024-03-08T03:57:29;8.13;;;5.97;;
12990;SDS011;6560;57.692;11.958;2024-03-08T03:59:55;13.90;;;6.60;;
12990;SDS011;6560;57.692;11.958;2024-03-08T04:02:20;12.93;;;6.70;;
12990;SDS011;6560;57.692;11.958;2024-03-08T04:04:47;11.10;;;5.93;;
12990;SDS011;6560;57.692;11.958;2024-03-08T04:07:12;11.63;;;7.27;;
12990;SDS011;6560;57.692;11.958;2024-03-08T04:09:38;8.93;;;6.10;;
12990;SDS011;6560;57.692;11.958;2024-03-08T04:12:04;11.30;;;6.30;;
12990;SDS011;6560;57.692;11.958;2024-03-08T04:14:29;11.87;;;6.50;;
12990;SDS011;6560;57.692;11.958;2024-03-08T04:16:55;17.03;;;7.17;;
12990;SDS011;6560;57.692;11.958;2024-03-08T04:19:21;9.43;;;6.80;;
12990;SDS011;6560;57.692;11.958;2024-03-08T04:21:47;10.50;;;5.73;;
12990;SDS011;6560;57.692;11.958;2024-03-08T04:24:12;10.37;;;6.50;;
12990;SDS011;6560;57.692;11.958;2024-03-08T04:26:38;10.43;;;6.00;;
12990;SDS011;6560;57.692;11.958;2024-03-08T04:29:03;13.57;;;7.10;;
12990;SDS011;6560;57.692;11.958;2024-03-08T04:31:29;14.60;;;7.23;;
12990;SDS011;6560;57.692;11.958;2024-03-08T04:33:56;11.40;;;6.40;;
12990;SDS011;6560;57.692;11.958;2024-03-08T04:36:22;10.43;;;6.90;;
12990;SDS011;6560;57.692;11.958;2024-03-08T04:38:48;10.07;;;6.20;;
12990;SDS011;6560;57.692;11.958;2024-03-08T04:41:13;7.83;;;6.57;;
12990;SDS011;6560;57.692;11.958;2024-03-08T04:43:39;11.40;;;7.47;;
12990;SDS011;6560;57.692;11.958;2024-03-08T04:46:05;10.23;;;5.90;;
12990;SDS011;6560;57.692;11.958;2024-03-08T04:48:30;10.80;;;6.37;;
12990;SDS011;6560;57.692;11.958;2024-03-08T04:50:56;12.50;;;6.50;;
12990;SDS011;6560;57.692;11.958;2024-03-08T04:53:21;8.17;;;6.07;;
12990;SDS011;6560;57.692;11.958;2024-03-08T04:55:47;11.33;;;6.20;;
12990;SDS011;6560;57.692;11.958;2024-03-08T04:58:12;13.37;;;6.03;;
12990;SDS011;6560;57.692;11.958;2024-03-08T05:00:38;12.43;;;6.80;;
12990;SDS011;6560;57.692;11.958;2024-03-08T05:03:03;17.40;;;7.13;;
12990;SDS011;6560;57.692;11.958;2024-03-08T05:05:29;10.67;;;6.40;;
12990;SDS011;6560;57.692;11.958;2024-03-08T05:07:55;16.70;;;6.37;;
12990;SDS011;6560;57.692;11.958;2024-03-08T05:10:21;11.03;;;8.07;;
12990;SDS011;6560;57.692;11.958;2024-03-08T05:12:46;8.70;;;6.40;;
12990;SDS011;6560;57.692;11.958;2024-03-08T05:15:12;9.97;;;6.27;;
12990;SDS011;6560;57.692;11.958;2024-03-08T05:17:38;11.67;;;6.80;;
12990;SDS011;6560;57.692;11.958;2024-03-08T05:20:05;14.30;;;6.57;;
12990;SDS011;6560;57.692;11.958;2024-03-08T05:22:33;13.13;;;6.60;;
12990;SDS011;6560;57.692;11.958;2024-03-08T05:24:59;10.30;;;6.40;;
12990;SDS011;6560;57.692;11.958;2024-03-08T05:27:24;15.03;;;5.77;;
12990;SDS011;6560;57.692;11.958;2024-03-08T05:29:49;8.47;;;6.37;;
12990;SDS011;6560;57.692;11.958;2024-03-08T05:32:15;13.90;;;6.23;;
12990;SDS011;6560;57.692;11.958;2024-03-08T05:34:40;13.57;;;7.03;;
12990;SDS011;6560;57.692;11.958;2024-03-08T05:37:06;10.63;;;6.70;;
12990;SDS011;6560;57.692;11.958;2024-03-08T05:39:32;10.23;;;6.67;;
12990;SDS011;6560;57.692;11.958;2024-03-08T05:41:57;12.63;;;6.63;;
12990;SDS011;6560;57.692;11.958;2024-03-08T05:44:23;15.03;;;7.37;;
12990;SDS011;6560;57.692;11.958;2024-03-08T05:46:48;12.90;;;6.40;;
12990;SDS011;6560;57.692;11.958;2024-03-08T05:49:14;12.47;;;6.83;;
12990;SDS011;6560;57.692;11.958;2024-03-08T05:51:39;14.73;;;6.87;;
12990;SDS011;6560;57.692;11.958;2024-03-08T05:54:12;10.63;;;7.00;;
12990;SDS011;6560;57.692;11.958;2024-03-08T05:56:38;10.53;;;6.57;;
12990;SDS011;6560;57.692;11.958;2024-03-08T05:59:07;11.57;;;6.60;;
12990;SDS011;6560;57.692;11.958;2024-03-08T06:01:33;12.70;;;7.77;;
12990;SDS011;6560;57.692;11.958;2024-03-08T06:04:01;11.87;;;7.67;;
12990;SDS011;6560;57.692;11.958;2024-03-08T06:06:27;15.50;;;7.73;;
12990;SDS011;6560;57.692;11.958;2024-03-08T06:08:53;13.77;;;6.57;;
12990;SDS011;6560;57.692;11.958;2024-03-08T06:11:19;11.13;;;6.47;;
12990;SDS011;6560;57.692;11.958;2024-03-08T06:13:45;14.13;;;7.53;;
12990;SDS011;6560;57.692;11.958;2024-03-08T06:16:11;10.57;;;7.40;;
12990;SDS011;6560;57.692;11.958;2024-03-08T06:18:37;13.67;;;7.10;;
12990;SDS011;6560;57.692;11.958;2024-03-08T06:21:04;12.10;;;7.00;;
12990;SDS011;6560;57.692;11.958;2024-03-08T06:23:34;15.27;;;6.87;;
12990;SDS011;6560;57.692;11.958;2024-03-08T06:26:03;13.53;;;7.00;;
12990;SDS011;6560;57.692;11.958;2024-03-08T06:28:32;15.20;;;6.73;;
12990;SDS011;6560;57.692;11.958;2024-03-08T06:30:58;18.77;;;7.37;;
12990;SDS011;6560;57.692;11.958;2024-03-08T06:33:24;13.00;;;7.27;;
12990;SDS011;6560;57.692;11.958;2024-03-08T06:35:51;13.00;;;6.80;;
12990;SDS011;6560;57.692;11.958;2024-03-08T06:38:22;15.47;;;7.93;;
12990;SDS011;6560;57.692;11.958;2024-03-08T06:40:48;10.97;;;7.20;;
12990;SDS011;6560;57.692;11.958;2024-03-08T06:43:14;12.93;;;7.43;;
12990;SDS011;6560;57.692;11.958;2024-03-08T06:45:44;14.43;;;6.50;;
12990;SDS011;6560;57.692;11.958;2024-03-08T06:48:19;19.73;;;7.63;;
12990;SDS011;6560;57.692;11.958;2024-03-08T06:50:45;15.50;;;7.20;;
12990;SDS011;6560;57.692;11.958;2024-03-08T06:53:11;14.20;;;7.27;;
12990;SDS011;6560;57.692;11.958;2024-03-08T06:55:37;12.07;;;6.73;;
12990;SDS011;6560;57.692;11.958;2024-03-08T06:58:02;20.67;;;8.33;;
12990;SDS011;6560;57.692;11.958;2024-03-08T07:00:28;21.40;;;10.20;;
12990;SDS011;6560;57.692;11.958;2024-03-08T07:02:55;14.97;;;8.43;;
12990;SDS011;6560;57.692;11.958;2024-03-08T07:05:22;17.50;;;8.00;;
12990;SDS011;6560;57.692;11.958;2024-03-08T07:07:49;16.47;;;7.83;;
12990;SDS011;6560;57.692;11.958;2024-03-08T07:10:16;16.60;;;7.87;;
12990;SDS011;6560;57.692;11.958;2024-03-08T07:12:41;13.27;;;6.73;;
12990;SDS011;6560;57.692;11.958;2024-03-08T07:15:07;29.83;;;7.57;;
12990;SDS011;6560;57.692;11.958;2024-03-08T07:17:33;16.70;;;7.03;;
12990;SDS011;6560;57.692;11.958;2024-03-08T07:20:00;18.30;;;8.10;;
12990;SDS011;6560;57.692;11.958;2024-03-08T07:22:29;16.67;;;8.20;;
12990;SDS011;6560;57.692;11.958;2024-03-08T07:24:56;15.13;;;8.07;;
12990;SDS011;6560;57.692;11.958;2024-03-08T07:27:41;25.57;;;8.57;;
12990;SDS011;6560;57.692;11.958;2024-03-08T07:30:07;20.50;;;7.93;;
12990;SDS011;6560;57.692;11.958;2024-03-08T07:32:35;18.63;;;7.20;;
12990;SDS011;6560;57.692;11.958;2024-03-08T07:35:00;16.47;;;7.83;;
12990;SDS011;6560;57.692;11.958;2024-03-08T07:37:27;13.93;;;7.80;;
12990;SDS011;6560;57.692;11.958;2024-03-08T07:39:52;13.13;;;7.00;;
12990;SDS011;6560;57.692;11.958;2024-03-08T07:42:18;12.60;;;7.40;;
12990;SDS011;6560;57.692;11.958;2024-03-08T07:44:43;25.70;;;9.97;;
12990;SDS011;6560;57.692;11.958;2024-03-08T07:47:10;11.37;;;7.20;;
12990;SDS011;6560;57.692;11.958;2024-03-08T07:49:37;17.57;;;7.80;;
12990;SDS011;6560;57.692;11.958;2024-03-08T07:52:03;18.37;;;8.03;;
12990;SDS011;6560;57.692;11.958;2024-03-08T07:54:29;14.57;;;7.90;;
12990;SDS011;6560;57.692;11.958;2024-03-08T07:56:55;16.63;;;7.93;;
12990;SDS011;6560;57.692;11.958;2024-03-08T07:59:21;13.13;;;6.87;;
12990;SDS011;6560;57.692;11.958;2024-03-08T08:01:46;12.30;;;7.53;;
12990;SDS011;6560;57.692;11.958;2024-03-08T08:04:12;11.30;;;7.93;;
12990;SDS011;6560;57.692;11.958;2024-03-08T08:06:39;13.13;;;7.87;;
12990;SDS011;6560;57.692;11.958;2024-03-08T08:09:08;15.70;;;7.47;;
12990;SDS011;6560;57.692;11.958;2024-03-08T08:11:40;18.13;;;7.87;;
12990;SDS011;6560;57.692;11.958;2024-03-08T08:14:08;10.63;;;6.90;;
12990;SDS011;6560;57.692;11.958;2024-03-08T08:16:36;11.50;;;6.47;;
12990;SDS011;6560;57.692;11.958;2024-03-08T08:19:03;16.30;;;6.97;;
12990;SDS011;6560;57.692;11.958;2024-03-08T08:21:33;12.63;;;6.17;;
12990;SDS011;6560;57.692;11.958;2024-03-08T08:24:04;10.93;;;6.77;;
12990;SDS011;6560;57.692;11.958;2024-03-08T08:26:30;9.30;;;6.03;;
12990;SDS011;6560;57.692;11.958;2024-03-08T08:28:55;16.73;;;6.77;;
12990;SDS011;6560;57.692;11.958;2024-03-08T08:31:21;9.07;;;5.67;;
12990;SDS011;6560;57.692;11.958;2024-03-08T08:33:47;12.40;;;6.20;;
12990;SDS011;6560;57.692;11.958;2024-03-08T08:36:14;13.43;;;5.97;;
12990;SDS011;6560;57.692;11.958;2024-03-08T08:38:39;10.50;;;5.77;;
12990;SDS011;6560;57.692;11.958;2024-03-08T08:41:07;8.77;;;5.23;;
12990;SDS011;6560;57.692;11.958;2024-03-08T08:43:34;6.73;;;5.60;;
12990;SDS011;6560;57.692;11.958;2024-03-08T08:46:00;14.63;;;5.17;;
12990;SDS011;6560;57.692;11.958;2024-03-08T08:48:26;11.40;;;5.80;;
12990;SDS011;6560;57.692;11.958;2024-03-08T08:50:53;9.63;;;5.10;;
12990;SDS011;6560;57.692;11.958;2024-03-08T08:53:18;7.00;;;4.97;;
12990;SDS011;6560;57.692;11.958;2024-03-08T08:55:44;12.27;;;5.63;;
12990;SDS011;6560;57.692;11.958;2024-03-08T08:58:11;6.80;;;4.43;;
12990;SDS011;6560;57.692;11.958;2024-03-08T09:00:36;10.07;;;4.80;;
12990;SDS011;6560;57.692;11.958;2024-03-08T09:03:02;13.53;;;5.40;;
12990;SDS011;6560;57.692;11.958;2024-03-08T09:05:27;6.17;;;4.03;;
12990;SDS011;6560;57.692;11.958;2024-03-08T09:07:53;5.87;;;4.37;;
12990;SDS011;6560;57.692;11.958;2024-03-08T09:10:19;5.87;;;4.37;;
12990;SDS011;6560;57.692;11.958;2024-03-08T09:12:45;7.60;;;4.23;;
12990;SDS011;6560;57.692;11.958;2024-03-08T09:15:10;5.63;;;4.03;;
12990;SDS011;6560;57.692;11.958;2024-03-08T09:17:36;8.63;;;4.67;;
12990;SDS011;6560;57.692;11.958;2024-03-08T09:20:05;5.60;;;4.30;;
12990;SDS011;6560;57.692;11.958;2024-03-08T09:22:31;8.87;;;4.17;;
12990;SDS011;6560;57.692;11.958;2024-03-08T09:24:57;6.50;;;3.83;;
12990;SDS011;6560;57.692;11.958;2024-03-08T09:27:22;7.07;;;3.53;;
12990;SDS011;6560;57.692;11.958;2024-03-08T09:29:49;12.30;;;3.77;;
12990;SDS011;6560;57.692;11.958;2024-03-08T09:32:14;7.07;;;3.37;;
12990;SDS011;6560;57.692;11.958;2024-03-08T09:34:40;9.57;;;4.90;;
12990;SDS011;6560;57.692;11.958;2024-03-08T09:37:05;8.00;;;4.10;;
12990;SDS011;6560;57.692;11.958;2024-03-08T09:39:31;5.43;;;3.53;;
12990;SDS011;6560;57.692;11.958;2024-03-08T09:41:58;4.87;;;3.63;;
12990;SDS011;6560;57.692;11.958;2024-03-08T09:44:24;6.57;;;3.93;;
12990;SDS011;6560;57.692;11.958;2024-03-08T09:46:50;5.70;;;3.53;;
12990;SDS011;6560;57.692;11.958;2024-03-08T09:49:18;3.83;;;3.07;;
12990;SDS011;6560;57.692;11.958;2024-03-08T09:51:43;5.07;;;3.83;;
12990;SDS011;6560;57.692;11.958;2024-03-08T09:54:09;6.30;;;3.13;;
12990;SDS011;6560;57.692;11.958;2024-03-08T09:56:34;5.67;;;3.30;;
12990;SDS011;6560;57.692;11.958;2024-03-08T09:59:01;5.93;;;3.23;;
12990;SDS011;6560;57.692;11.958;2024-03-08T10:01:36;7.97;;;3.80;;
12990;SDS011;6560;57.692;11.958;2024-03-08T10:04:04;6.60;;;3.43;;
12990;SDS011;6560;57.692;11.958;2024-03-08T10:06:29;7.50;;;3.63;;
12990;SDS011;6560;57.692;11.958;2024-03-08T10:08:56;4.33;;;3.13;;
12990;SDS011;6560;57.692;11.958;2024-03-08T10:11:22;8.03;;;3.63;;
12990;SDS011;6560;57.692;11.958;2024-03-08T10:13:48;9.20;;;3.60;;
12990;SDS011;6560;57.692;11.958;2024-03-08T10:16:15;6.23;;;3.67;;
12990;SDS011;6560;57.692;11.958;2024-03-08T10:18:42;8.90;;;3.70;;
12990;SDS011;6560;57.692;11.958;2024-03-08T10:21:08;10.07;;;3.97;;
12990;SDS011;6560;57.692;11.958;2024-03-08T10:23:40;7.27;;;3.80;;
12990;SDS011;6560;57.692;11.958;2024-03-08T10:26:15;7.63;;;3.60;;
12990;SDS011;6560;57.692;11.958;2024-03-08T10:28:44;4.37;;;3.37;;
12990;SDS011;6560;57.692;11.958;2024-03-08T10:31:10;7.60;;;3.00;;
12990;SDS011;6560;57.692;11.958;2024-03-08T10:33:36;14.30;;;4.17;;
12990;SDS011;6560;57.692;11.958;2024-03-08T10:36:05;7.43;;;3.57;;
12990;SDS011;6560;57.692;11.958;2024-03-08T10:38:32;7.50;;;3.97;;
12990;SDS011;6560;57.692;11.958;2024-03-08T10:40:59;7.20;;;3.83;;
12990;SDS011;6560;57.692;11.958;2024-03-08T10:43:25;11.83;;;3.13;;
12990;SDS011;6560;57.692;11.958;2024-03-08T10:46:09;5.93;;;3.53;;
12990;SDS011;6560;57.692;11.958;2024-03-08T10:48:43;6.63;;;3.33;;
12990;SDS011;6560;57.692;11.958;2024-03-08T10:51:11;8.03;;;3.27;;
12990;SDS011;6560;57.692;11.958;2024-03-08T10:53:37;5.57;;;2.80;;
12990;SDS011;6560;57.692;11.958;2024-03-08T10:56:06;4.63;;;2.83;;
12990;SDS011;6560;57.692;11.958;2024-03-08T10:58:32;5.40;;;3.10;;
12990;SDS011;6560;57.692;11.958;2024-03-08T11:00:59;7.97;;;3.17;;
12990;SDS011;6560;57.692;11.958;2024-03-08T11:06:19;6.13;;;2.60;;
12990;SDS011;6560;57.692;11.958;2024-03-08T11:09:27;4.63;;;2.57;;
12990;SDS011;6560;57.692;11.958;2024-03-08T11:14:45;5.87;;;3.00;;
12990;SDS011;6560;57.692;11.958;2024-03-08T11:18:00;6.50;;;3.10;;
12990;SDS011;6560;57.692;11.958;2024-03-08T11:20:03;3.67;;;2.60;;
12990;SDS011;6560;57.692;11.958;2024-03-08T11:22:40;8.00;;;2.57;;
12990;SDS011;6560;57.692;11.958;2024-03-08T11:25:40;3.23;;;2.23;;
12990;SDS011;6560;57.692;11.958;2024-03-08T11:28:21;4.47;;;2.60;;
12990;SDS011;6560;57.692;11.958;2024-03-08T11:33:23;5.40;;;2.27;;
12990;SDS011;6560;57.692;11.958;2024-03-08T11:35:50;8.97;;;2.87;;
12990;SDS011;6560;57.692;11.958;2024-03-08T11:38:15;4.43;;;2.43;;
12990;SDS011;6560;57.692;11.958;2024-03-08T11:40:41;6.33;;;2.60;;
12990;SDS011;6560;57.692;11.958;2024-03-08T11:43:08;5.73;;;2.40;;
12990;SDS011;6560;57.692;11.958;2024-03-08T11:45:36;3.37;;;2.47;;
12990;SDS011;6560;57.692;11.958;2024-03-08T11:48:02;5.13;;;2.10;;
12990;SDS011;6560;57.692;11.958;2024-03-08T11:50:29;4.00;;;1.90;;
12990;SDS011;6560;57.692;11.958;2024-03-08T11:53:00;4.03;;;2.17;;
12990;SDS011;6560;57.692;11.958;2024-03-08T11:55:27;3.43;;;2.43;;
12990;SDS011;6560;57.692;11.958;2024-03-08T11:57:59;2.77;;;2.00;;
12990;SDS011;6560;57.692;11.958;2024-03-08T12:00:26;2.70;;;2.20;;
12990;SDS011;6560;57.692;11.958;2024-03-08T12:03:01;2.17;;;1.97;;
12990;SDS011;6560;57.692;11.958;2024-03-08T12:05:27;3.33;;;2.00;;
12990;SDS011;6560;57.692;11.958;2024-03-08T12:07:59;5.30;;;2.33;;
12990;SDS011;6560;57.692;11.958;2024-03-08T12:10:25;2.77;;;2.23;;
12990;SDS011;6560;57.692;11.958;2024-03-08T12:12:52;6.67;;;2.27;;
12990;SDS011;6560;57.692;11.958;2024-03-08T12:15:18;3.97;;;2.40;;
12990;SDS011;6560;57.692;11.958;2024-03-08T12:17:49;6.57;;;2.53;;
12990;SDS011;6560;57.692;11.958;2024-03-08T12:22:46;4.07;;;2.50;;
12990;SDS011;6560;57.692;11.958;2024-03-08T12:25:12;4.87;;;2.23;;
12990;SDS011;6560;57.692;11.958;2024-03-08T12:27:38;8.07;;;2.40;;
12990;SDS011;6560;57.692;11.958;2024-03-08T12:32:48;2.07;;;1.87;;
12990;SDS011;6560;57.692;11.958;2024-03-08T12:35:19;3.33;;;2.33;;
12990;SDS011;6560;57.692;11.958;2024-03-08T12:37:47;3.13;;;2.50;;
12990;SDS011;6560;57.692;11.958;2024-03-08T12:40:14;5.60;;;2.03;;
12990;SDS011;6560;57.692;11.958;2024-03-08T12:42:42;5.83;;;2.03;;
12990;SDS011;6560;57.692;11.958;2024-03-08T12:45:08;2.23;;;2.03;;
12990;SDS011;6560;57.692;11.958;2024-03-08T12:47:35;3.03;;;1.97;;
12990;SDS011;6560;57.692;11.958;2024-03-08T12:50:01;3.20;;;1.70;;
12990;SDS011;6560;57.692;11.958;2024-03-08T12:52:28;3.17;;;2.03;;
12990;SDS011;6560;57.692;11.958;2024-03-08T12:54:55;5.03;;;2.27;;
12990;SDS011;6560;57.692;11.958;2024-03-08T12:57:21;3.17;;;1.93;;
12990;SDS011;6560;57.692;11.958;2024-03-08T12:59:46;4.73;;;1.90;;
12990;SDS011;6560;57.692;11.958;2024-03-08T13:02:11;3.13;;;1.80;;
12990;SDS011;6560;57.692;11.958;2024-03-08T13:04:37;3.80;;;1.80;;
12990;SDS011;6560;57.692;11.958;2024-03-08T13:07:03;2.63;;;1.70;;
12990;SDS011;6560;57.692;11.958;2024-03-08T13:09:28;6.60;;;1.70;;
12990;SDS011;6560;57.692;11.958;2024-03-08T13:11:54;4.17;;;2.33;;
12990;SDS011;6560;57.692;11.958;2024-03-08T13:14:20;3.17;;;2.50;;
12990;SDS011;6560;57.692;11.958;2024-03-08T13:16:46;2.90;;;2.03;;
12990;SDS011;6560;57.692;11.958;2024-03-08T13:19:13;4.37;;;1.80;;
12990;SDS011;6560;57.692;11.958;2024-03-08T13:21:39;3.13;;;2.10;;
12990;SDS011;6560;57.692;11.958;2024-03-08T13:24:04;3.43;;;1.90;;
12990;SDS011;6560;57.692;11.958;2024-03-08T13:26:30;5.83;;;2.43;;
12990;SDS011;6560;57.692;11.958;2024-03-08T13:28:59;3.53;;;2.03;;
12990;SDS011;6560;57.692;11.958;2024-03-08T13:31:24;4.10;;;2.37;;
12990;SDS011;6560;57.692;11.958;2024-03-08T13:33:50;5.13;;;1.80;;
12990;SDS011;6560;57.692;11.958;2024-03-08T13:36:16;3.73;;;2.03;;
12990;SDS011;6560;57.692;11.958;2024-03-08T13:38:46;4.77;;;2.07;;
12990;SDS011;6560;57.692;11.958;2024-03-08T13:41:12;2.37;;;1.47;;
12990;SDS011;6560;57.692;11.958;2024-03-08T13:43:40;2.60;;;2.27;;
12990;SDS011;6560;57.692;11.958;2024-03-08T13:46:06;4.93;;;2.00;;
12990;SDS011;6560;57.692;11.958;2024-03-08T13:48:32;6.57;;;1.80;;
12990;SDS011;6560;57.692;11.958;2024-03-08T13:50:58;3.13;;;1.90;;
12990;SDS011;6560;57.692;11.958;2024-03-08T13:53:25;4.63;;;1.93;;
12990;SDS011;6560;57.692;11.958;2024-03-08T13:55:51;4.27;;;2.33;;
12990;SDS011;6560;57.692;11.958;2024-03-08T13:58:16;3.60;;;1.90;;
12990;SDS011;6560;57.692;11.958;2024-03-08T14:00:42;2.17;;;1.70;;
12990;SDS011;6560;57.692;11.958;2024-03-08T14:03:09;6.67;;;2.03;;
12990;SDS011;6560;57.692;11.958;2024-03-08T14:05:38;2.43;;;1.70;;
12990;SDS011;6560;57.692;11.958;2024-03-08T14:08:04;7.03;;;2.30;;
12990;SDS011;6560;57.692;11.958;2024-03-08T14:10:32;7.37;;;1.50;;
12990;SDS011;6560;57.692;11.958;2024-03-08T14:13:02;2.63;;;2.00;;
12990;SDS011;6560;57.692;11.958;2024-03-08T14:15:33;3.83;;;1.80;;
12990;SDS011;6560;57.692;11.958;2024-03-08T14:18:03;3.77;;;1.47;;
12990;SDS011;6560;57.692;11.958;2024-03-08T14:20:31;2.43;;;1.77;;
12990;SDS011;6560;57.692;11.958;2024-03-08T14:22:58;2.20;;;1.77;;
12990;SDS011;6560;57.692;11.958;2024-03-08T14:25:23;3.97;;;1.90;;
12990;SDS011;6560;57.692;11.958;2024-03-08T14:27:50;2.30;;;1.63;;
12990;SDS011;6560;57.692;11.958;2024-03-08T14:30:19;3.57;;;1.60;;
12990;SDS011;6560;57.692;11.958;2024-03-08T14:33:14;3.17;;;1.70;;
12990;SDS011;6560;57.692;11.958;2024-03-08T14:35:40;3.33;;;1.80;;
12990;SDS011;6560;57.692;11.958;2024-03-08T14:38:05;4.53;;;2.07;;
12990;SDS011;6560;57.692;11.958;2024-03-08T14:40:33;1.63;;;1.53;;
12990;SDS011;6560;57.692;11.958;2024-03-08T14:42:59;3.00;;;1.47;;
12990;SDS011;6560;57.692;11.958;2024-03-08T14:45:24;3.60;;;2.13;;
12990;SDS011;6560;57.692;11.958;2024-03-08T14:47:51;5.57;;;2.00;;
12990;SDS011;6560;57.692;11.958;2024-03-08T14:50:17;1.60;;;1.00;;
12990;SDS011;6560;57.692;11.958;2024-03-08T14:52:43;3.70;;;1.73;;